sensor_id;sensor_type;location;lat;lon;timestamp;temperature;humidity
18541;DHT22;9400;50.924;5.328;2023-02-28T00:00:18;1.40;99.90
18541;DHT22;9400;50.924;5.328;2023-02-28T00:02:47;1.40;99.90
18541;DHT22;9400;50.924;5.328;2023-02-28T00:05:17;1.40;99.90
18541;DHT22;9400;50.924;5.328;2023-02-28T00:07:45;1.30;99.90
18541;DHT22;9400;50.924;5.328;2023-02-28T00:10:19;1.30;99.90
18541;DHT22;9400;50.924;5.328;2023-02-28T00:12:49;1.30;99.90
18541;DHT22;9400;50.924;5.328;2023-02-28T00:15:19;1.30;99.90
18541;DHT22;9400;50.924;5.328;2023-02-28T00:17:47;1.30;99.90
18541;DHT22;9400;50.924;5.328;2023-02-28T00:20:16;1.40;99.90
18541;DHT22;9400;50.924;5.328;2023-02-28T00:22:45;1.40;99.90
18541;DHT22;9400;50.924;5.328;2023-02-28T00:25:16;1.30;99.90
18541;DHT22;9400;50.924;5.328;2023-02-28T00:27:44;1.30;99.90
18541;DHT22;9400;50.924;5.328;2023-02-28T00:30:14;1.20;99.90
18541;DHT22;9400;50.924;5.328;2023-02-28T00:32:43;1.10;99.90
18541;DHT22;9400;50.924;5.328;2023-02-28T00:35:11;1.10;99.90
18541;DHT22;9400;50.924;5.328;2023-02-28T00:37:40;1.10;99.90
18541;DHT22;9400;50.924;5.328;2023-02-28T00:40:08;1.00;99.90
18541;DHT22;9400;50.924;5.328;2023-02-28T00:42:39;1.10;99.90
18541;DHT22;9400;50.924;5.328;2023-02-28T00:45:07;1.10;99.90
18541;DHT22;9400;50.924;5.328;2023-02-28T00:47:35;1.10;99.90
18541;DHT22;9400;50.924;5.328;2023-02-28T00:50:04;1.00;99.90
18541;DHT22;9400;50.924;5.328;2023-02-28T00:52:32;1.00;99.90
18541;DHT22;9400;50.924;5.328;2023-02-28T00:54:59;1.00;99.90
18541;DHT22;9400;50.924;5.328;2023-02-28T00:57:27;1.00;99.90
18541;DHT22;9400;50.924;5.328;2023-02-28T00:59:55;1.00;99.90
18541;DHT22;9400;50.924;5.328;2023-02-28T01:02:23;0.90;99.90
18541;DHT22;9400;50.924;5.328;2023-02-28T01:04:51;0.90;99.90
18541;DHT22;9400;50.924;5.328;2023-02-28T01:07:20;1.00;99.90
18541;DHT22;9400;50.924;5.328;2023-02-28T01:09:47;0.90;99.90
18541;DHT22;9400;50.924;5.328;2023-02-28T01:12:15;0.90;99.90
18541;DHT22;9400;50.924;5.328;2023-02-28T01:14:43;0.90;99.90
18541;DHT22;9400;50.924;5.328;2023-02-28T01:17:13;0.90;99.90
18541;DHT22;9400;50.924;5.328;2023-02-28T01:19:40;0.90;99.90
18541;DHT22;9400;50.924;5.328;2023-02-28T01:22:07;0.90;99.90
18541;DHT22;9400;50.924;5.328;2023-02-28T01:24:36;0.80;99.90
18541;DHT22;9400;50.924;5.328;2023-02-28T01:27:04;0.80;99.90
18541;DHT22;9400;50.924;5.328;2023-02-28T01:29:32;0.90;99.90
18541;DHT22;9400;50.924;5.328;2023-02-28T01:32:00;0.80;99.90
18541;DHT22;9400;50.924;5.328;2023-02-28T01:34:29;0.80;99.90
18541;DHT22;9400;50.924;5.328;2023-02-28T01:36:56;0.80;99.90
18541;DHT22;9400;50.924;5.328;2023-02-28T01:39:25;0.80;99.90
18541;DHT22;9400;50.924;5.328;2023-02-28T01:41:53;0.80;99.90
18541;DHT22;9400;50.924;5.328;2023-02-28T01:44:59;0.70;99.90
18541;DHT22;9400;50.924;5.328;2023-02-28T01:47:29;0.70;99.90
18541;DHT22;9400;50.924;5.328;2023-02-28T01:50:02;0.70;99.90
18541;DHT22;9400;50.924;5.328;2023-02-28T01:52:32;0.60;99.90
18541;DHT22;9400;50.924;5.328;2023-02-28T01:55:02;0.60;99.90
18541;DHT22;9400;50.924;5.328;2023-02-28T01:57:37;0.60;99.90
18541;DHT22;9400;50.924;5.328;2023-02-28T02:00:08;0.60;99.90
18541;DHT22;9400;50.924;5.328;2023-02-28T02:02:39;0.50;99.90
18541;DHT22;9400;50.924;5.328;2023-02-28T02:05:12;0.50;99.90
18541;DHT22;9400;50.924;5.328;2023-02-28T02:07:43;0.50;99.90
18541;DHT22;9400;50.924;5.328;2023-02-28T02:10:15;0.40;99.90
18541;DHT22;9400;50.924;5.328;2023-02-28T02:15:38;0.40;99.90
18541;DHT22;9400;50.924;5.328;2023-02-28T02:18:18;0.40;99.90
18541;DHT22;9400;50.924;5.328;2023-02-28T02:26:54;0.40;99.90
18541;DHT22;9400;50.924;5.328;2023-02-28T02:29:39;0.40;99.90
18541;DHT22;9400;50.924;5.328;2023-02-28T02:35:08;0.30;99.90
18541;DHT22;9400;50.924;5.328;2023-02-28T02:37:46;0.40;99.90
18541;DHT22;9400;50.924;5.328;2023-02-28T02:40:18;0.30;99.90
18541;DHT22;9400;50.924;5.328;2023-02-28T02:42:51;0.30;99.90
18541;DHT22;9400;50.924;5.328;2023-02-28T02:45:26;0.20;99.90
18541;DHT22;9400;50.924;5.328;2023-02-28T02:47:57;0.20;99.90
18541;DHT22;9400;50.924;5.328;2023-02-28T02:50:31;0.20;99.90
18541;DHT22;9400;50.924;5.328;2023-02-28T02:53:02;0.30;99.90
18541;DHT22;9400;50.924;5.328;2023-02-28T02:55:32;0.20;99.90
18541;DHT22;9400;50.924;5.328;2023-02-28T02:58:03;0.20;99.90
18541;DHT22;9400;50.924;5.328;2023-02-28T03:00:36;0.20;99.90
18541;DHT22;9400;50.924;5.328;2023-02-28T03:03:05;0.20;99.90
18541;DHT22;9400;50.924;5.328;2023-02-28T03:05:41;0.20;99.90
18541;DHT22;9400;50.924;5.328;2023-02-28T03:08:10;0.20;99.90
18541;DHT22;9400;50.924;5.328;2023-02-28T03:10:40;0.20;99.90
18541;DHT22;9400;50.924;5.328;2023-02-28T03:16:32;0.30;99.90
18541;DHT22;9400;50.924;5.328;2023-02-28T03:19:25;0.30;99.90
18541;DHT22;9400;50.924;5.328;2023-02-28T03:22:23;0.30;99.90
18541;DHT22;9400;50.924;5.328;2023-02-28T03:25:08;0.20;99.90
18541;DHT22;9400;50.924;5.328;2023-02-28T03:27:41;0.30;99.90
18541;DHT22;9400;50.924;5.328;2023-02-28T03:30:14;0.30;99.90
18541;DHT22;9400;50.924;5.328;2023-02-28T03:32:51;0.20;99.90
18541;DHT22;9400;50.924;5.328;2023-02-28T03:35:23;0.20;99.90
18541;DHT22;9400;50.924;5.328;2023-02-28T03:38:02;0.10;99.90
18541;DHT22;9400;50.924;5.328;2023-02-28T03:40:33;0.00;99.90
18541;DHT22;9400;50.924;5.328;2023-02-28T03:43:09;0.00;99.90
18541;DHT22;9400;50.924;5.328;2023-02-28T03:45:42;0.10;99.90
18541;DHT22;9400;50.924;5.328;2023-02-28T03:48:17;0.10;99.90
18541;DHT22;9400;50.924;5.328;2023-02-28T03:50:49;0.10;99.90
18541;DHT22;9400;50.924;5.328;2023-02-28T03:53:22;0.10;99.90
18541;DHT22;9400;50.924;5.328;2023-02-28T03:55:56;0.10;99.90
18541;DHT22;9400;50.924;5.328;2023-02-28T03:58:30;0.10;99.90
18541;DHT22;9400;50.924;5.328;2023-02-28T04:01:03;0.10;99.90
18541;DHT22;9400;50.924;5.328;2023-02-28T04:03:35;0.10;99.90
18541;DHT22;9400;50.924;5.328;2023-02-28T04:06:04;0.10;99.90
18541;DHT22;9400;50.924;5.328;2023-02-28T04:08:34;0.20;99.90
18541;DHT22;9400;50.924;5.328;2023-02-28T04:11:06;0.10;99.90
18541;DHT22;9400;50.924;5.328;2023-02-28T04:13:34;0.10;99.90
18541;DHT22;9400;50.924;5.328;2023-02-28T04:16:06;0.00;99.90
18541;DHT22;9400;50.924;5.328;2023-02-28T04:18:37;0.00;99.90
18541;DHT22;9400;50.924;5.328;2023-02-28T04:21:05;0.00;99.90
18541;DHT22;9400;50.924;5.328;2023-02-28T04:23:34;0.00;99.90
18541;DHT22;9400;50.924;5.328;2023-02-28T04:26:03;0.00;99.90
18541;DHT22;9400;50.924;5.328;2023-02-28T04:28:33;0.00;99.90
18541;DHT22;9400;50.924;5.328;2023-02-28T04:31:03;-0.10;99.90
18541;DHT22;9400;50.924;5.328;2023-02-28T04:33:33;-0.20;99.90
18541;DHT22;9400;50.924;5.328;2023-02-28T04:36:01;-0.20;99.90
18541;DHT22;9400;50.924;5.328;2023-02-28T04:38:32;-0.20;99.90
18541;DHT22;9400;50.924;5.328;2023-02-28T04:41:02;-0.20;99.90
18541;DHT22;9400;50.924;5.328;2023-02-28T04:43:30;-0.30;99.90
18541;DHT22;9400;50.924;5.328;2023-02-28T04:46:00;-0.20;99.90
18541;DHT22;9400;50.924;5.328;2023-02-28T04:48:30;-0.30;99.90
18541;DHT22;9400;50.924;5.328;2023-02-28T04:51:00;-0.30;99.90
18541;DHT22;9400;50.924;5.328;2023-02-28T04:53:29;-0.30;99.90
18541;DHT22;9400;50.924;5.328;2023-02-28T04:55:57;-0.30;99.90
18541;DHT22;9400;50.924;5.328;2023-02-28T04:58:26;-0.30;99.90
18541;DHT22;9400;50.924;5.328;2023-02-28T05:01:02;-0.30;99.90
18541;DHT22;9400;50.924;5.328;2023-02-28T05:03:30;-0.30;99.90
18541;DHT22;9400;50.924;5.328;2023-02-28T05:05:57;-0.30;99.90
18541;DHT22;9400;50.924;5.328;2023-02-28T05:08:25;-0.40;99.90
18541;DHT22;9400;50.924;5.328;2023-02-28T05:10:55;-0.40;99.90
18541;DHT22;9400;50.924;5.328;2023-02-28T05:13:23;-0.40;99.90
18541;DHT22;9400;50.924;5.328;2023-02-28T05:15:52;-0.40;99.90
18541;DHT22;9400;50.924;5.328;2023-02-28T05:18:19;-0.40;99.90
18541;DHT22;9400;50.924;5.328;2023-02-28T05:20:47;-0.50;99.90
18541;DHT22;9400;50.924;5.328;2023-02-28T05:23:15;-0.50;99.90
18541;DHT22;9400;50.924;5.328;2023-02-28T05:25:44;-0.50;99.90
18541;DHT22;9400;50.924;5.328;2023-02-28T05:28:15;-0.50;99.90
18541;DHT22;9400;50.924;5.328;2023-02-28T05:30:42;-0.50;99.90
18541;DHT22;9400;50.924;5.328;2023-02-28T05:33:12;-0.50;99.90
18541;DHT22;9400;50.924;5.328;2023-02-28T05:35:41;-0.60;99.90
18541;DHT22;9400;50.924;5.328;2023-02-28T05:38:09;-0.60;99.90
18541;DHT22;9400;50.924;5.328;2023-02-28T05:40:38;-0.70;99.90
18541;DHT22;9400;50.924;5.328;2023-02-28T05:43:10;-0.70;99.90
18541;DHT22;9400;50.924;5.328;2023-02-28T05:45:39;-0.70;99.90
18541;DHT22;9400;50.924;5.328;2023-02-28T05:48:07;-0.70;99.90
18541;DHT22;9400;50.924;5.328;2023-02-28T05:50:36;-0.70;99.90
18541;DHT22;9400;50.924;5.328;2023-02-28T05:53:04;-0.80;99.90
18541;DHT22;9400;50.924;5.328;2023-02-28T05:55:32;-0.80;99.90
18541;DHT22;9400;50.924;5.328;2023-02-28T05:58:02;-0.80;99.90
18541;DHT22;9400;50.924;5.328;2023-02-28T06:00:30;-0.80;99.90
18541;DHT22;9400;50.924;5.328;2023-02-28T06:02:58;-0.80;99.90
18541;DHT22;9400;50.924;5.328;2023-02-28T06:05:27;-0.80;99.90
18541;DHT22;9400;50.924;5.328;2023-02-28T06:07:57;-0.80;99.90
18541;DHT22;9400;50.924;5.328;2023-02-28T06:10:24;-0.80;99.90
18541;DHT22;9400;50.924;5.328;2023-02-28T06:12:51;-0.80;99.90
18541;DHT22;9400;50.924;5.328;2023-02-28T06:15:19;-0.80;99.90
18541;DHT22;9400;50.924;5.328;2023-02-28T06:17:47;-0.80;99.90
18541;DHT22;9400;50.924;5.328;2023-02-28T06:20:15;-0.80;99.90
18541;DHT22;9400;50.924;5.328;2023-02-28T06:22:43;-0.80;99.90
18541;DHT22;9400;50.924;5.328;2023-02-28T06:25:12;-0.80;99.90
18541;DHT22;9400;50.924;5.328;2023-02-28T06:27:40;-0.80;99.90
18541;DHT22;9400;50.924;5.328;2023-02-28T06:30:09;-0.80;99.90
18541;DHT22;9400;50.924;5.328;2023-02-28T06:32:37;-0.80;99.90
18541;DHT22;9400;50.924;5.328;2023-02-28T06:35:05;-0.70;99.90
18541;DHT22;9400;50.924;5.328;2023-02-28T06:37:33;-0.70;99.90
18541;DHT22;9400;50.924;5.328;2023-02-28T06:40:01;-0.70;99.90
18541;DHT22;9400;50.924;5.328;2023-02-28T06:42:35;-0.70;99.90
18541;DHT22;9400;50.924;5.328;2023-02-28T06:45:03;-0.70;99.90
18541;DHT22;9400;50.924;5.328;2023-02-28T06:47:35;-0.70;99.90
18541;DHT22;9400;50.924;5.328;2023-02-28T06:50:03;-0.70;99.90
18541;DHT22;9400;50.924;5.328;2023-02-28T06:52:31;-0.80;99.90
18541;DHT22;9400;50.924;5.328;2023-02-28T06:55:02;-0.70;99.90
18541;DHT22;9400;50.924;5.328;2023-02-28T06:57:30;-0.70;99.90
18541;DHT22;9400;50.924;5.328;2023-02-28T07:00:03;-0.70;99.90
18541;DHT22;9400;50.924;5.328;2023-02-28T07:02:31;-0.70;99.90
18541;DHT22;9400;50.924;5.328;2023-02-28T07:04:59;-0.60;99.90
18541;DHT22;9400;50.924;5.328;2023-02-28T07:07:27;-0.60;99.90
18541;DHT22;9400;50.924;5.328;2023-02-28T07:09:55;-0.60;99.90
18541;DHT22;9400;50.924;5.328;2023-02-28T07:12:22;-0.50;99.90
18541;DHT22;9400;50.924;5.328;2023-02-28T07:14:50;-0.50;99.90
18541;DHT22;9400;50.924;5.328;2023-02-28T07:17:19;-0.40;99.90
18541;DHT22;9400;50.924;5.328;2023-02-28T07:19:47;-0.50;99.90
18541;DHT22;9400;50.924;5.328;2023-02-28T07:22:15;-0.50;99.90
18541;DHT22;9400;50.924;5.328;2023-02-28T07:24:42;-0.50;99.90
18541;DHT22;9400;50.924;5.328;2023-02-28T07:27:10;-0.50;99.90
18541;DHT22;9400;50.924;5.328;2023-02-28T07:29:38;-0.40;99.90
18541;DHT22;9400;50.924;5.328;2023-02-28T07:32:05;-0.30;99.90
18541;DHT22;9400;50.924;5.328;2023-02-28T07:34:35;-0.30;99.90
18541;DHT22;9400;50.924;5.328;2023-02-28T07:37:06;-0.20;99.90
18541;DHT22;9400;50.924;5.328;2023-02-28T07:39:33;-0.10;99.90
18541;DHT22;9400;50.924;5.328;2023-02-28T07:42:04;-0.10;99.90
18541;DHT22;9400;50.924;5.328;2023-02-28T07:44:35;-0.10;99.90
18541;DHT22;9400;50.924;5.328;2023-02-28T07:47:06;0.00;99.90
18541;DHT22;9400;50.924;5.328;2023-02-28T07:49:36;0.10;99.90
18541;DHT22;9400;50.924;5.328;2023-02-28T07:52:04;0.10;99.90
18541;DHT22;9400;50.924;5.328;2023-02-28T07:54:32;0.20;99.90
18541;DHT22;9400;50.924;5.328;2023-02-28T07:57:00;0.20;99.90
18541;DHT22;9400;50.924;5.328;2023-02-28T07:59:28;0.30;99.90
18541;DHT22;9400;50.924;5.328;2023-02-28T08:01:57;0.40;99.90
18541;DHT22;9400;50.924;5.328;2023-02-28T08:04:26;0.60;99.90
18541;DHT22;9400;50.924;5.328;2023-02-28T08:06:55;0.60;99.90
18541;DHT22;9400;50.924;5.328;2023-02-28T08:09:23;0.60;99.90
18541;DHT22;9400;50.924;5.328;2023-02-28T08:11:50;0.70;99.90
18541;DHT22;9400;50.924;5.328;2023-02-28T08:14:18;0.90;99.90
18541;DHT22;9400;50.924;5.328;2023-02-28T08:16:46;1.00;99.90
18541;DHT22;9400;50.924;5.328;2023-02-28T08:19:14;1.00;99.90
18541;DHT22;9400;50.924;5.328;2023-02-28T08:21:41;1.10;99.90
18541;DHT22;9400;50.924;5.328;2023-02-28T08:24:11;1.20;99.90
18541;DHT22;9400;50.924;5.328;2023-02-28T08:26:39;1.20;99.90
18541;DHT22;9400;50.924;5.328;2023-02-28T08:29:06;1.40;99.90
18541;DHT22;9400;50.924;5.328;2023-02-28T08:31:34;1.40;99.90
18541;DHT22;9400;50.924;5.328;2023-02-28T08:34:05;1.60;99.90
18541;DHT22;9400;50.924;5.328;2023-02-28T08:36:33;1.60;99.90
18541;DHT22;9400;50.924;5.328;2023-02-28T08:39:00;1.80;99.90
18541;DHT22;9400;50.924;5.328;2023-02-28T08:41:30;1.90;99.90
18541;DHT22;9400;50.924;5.328;2023-02-28T08:43:59;1.80;99.90
18541;DHT22;9400;50.924;5.328;2023-02-28T08:46:29;1.90;99.90
18541;DHT22;9400;50.924;5.328;2023-02-28T08:48:57;2.00;99.90
18541;DHT22;9400;50.924;5.328;2023-02-28T08:51:28;2.10;99.90
18541;DHT22;9400;50.924;5.328;2023-02-28T08:53:59;2.00;99.90
18541;DHT22;9400;50.924;5.328;2023-02-28T08:56:27;1.90;99.90
18541;DHT22;9400;50.924;5.328;2023-02-28T08:58:57;2.10;99.90
18541;DHT22;9400;50.924;5.328;2023-02-28T09:01:26;2.20;99.90
18541;DHT22;9400;50.924;5.328;2023-02-28T09:03:55;2.30;99.90
18541;DHT22;9400;50.924;5.328;2023-02-28T09:06:24;2.40;99.90
18541;DHT22;9400;50.924;5.328;2023-02-28T09:08:52;2.40;99.90
18541;DHT22;9400;50.924;5.328;2023-02-28T09:11:21;2.50;99.90
18541;DHT22;9400;50.924;5.328;2023-02-28T09:13:48;2.40;99.90
18541;DHT22;9400;50.924;5.328;2023-02-28T09:16:18;2.50;99.90
18541;DHT22;9400;50.924;5.328;2023-02-28T09:18:46;2.50;99.90
18541;DHT22;9400;50.924;5.328;2023-02-28T09:21:15;2.60;99.90
18541;DHT22;9400;50.924;5.328;2023-02-28T09:23:45;2.60;99.90
18541;DHT22;9400;50.924;5.328;2023-02-28T09:26:14;2.70;99.90
18541;DHT22;9400;50.924;5.328;2023-02-28T09:28:41;2.80;99.90
18541;DHT22;9400;50.924;5.328;2023-02-28T09:31:12;3.00;99.90
18541;DHT22;9400;50.924;5.328;2023-02-28T09:33:41;2.90;99.90
18541;DHT22;9400;50.924;5.328;2023-02-28T09:36:08;3.00;99.90
18541;DHT22;9400;50.924;5.328;2023-02-28T09:38:36;3.10;99.90
18541;DHT22;9400;50.924;5.328;2023-02-28T09:41:11;3.10;99.90
18541;DHT22;9400;50.924;5.328;2023-02-28T09:43:44;3.20;99.90
18541;DHT22;9400;50.924;5.328;2023-02-28T09:46:23;3.40;99.90
18541;DHT22;9400;50.924;5.328;2023-02-28T09:48:54;3.50;99.90
18541;DHT22;9400;50.924;5.328;2023-02-28T09:51:33;3.50;99.90
18541;DHT22;9400;50.924;5.328;2023-02-28T09:54:02;3.50;99.90
18541;DHT22;9400;50.924;5.328;2023-02-28T09:56:34;3.40;99.90
18541;DHT22;9400;50.924;5.328;2023-02-28T09:59:09;3.50;99.90
18541;DHT22;9400;50.924;5.328;2023-02-28T10:01:45;3.60;99.90
18541;DHT22;9400;50.924;5.328;2023-02-28T10:04:37;3.60;99.90
18541;DHT22;9400;50.924;5.328;2023-02-28T10:07:15;3.60;99.90
18541;DHT22;9400;50.924;5.328;2023-02-28T10:09:48;3.60;99.90
18541;DHT22;9400;50.924;5.328;2023-02-28T10:12:20;3.70;99.90
18541;DHT22;9400;50.924;5.328;2023-02-28T10:14:51;3.80;99.90
18541;DHT22;9400;50.924;5.328;2023-02-28T10:17:23;3.90;99.90
18541;DHT22;9400;50.924;5.328;2023-02-28T10:19:59;4.10;99.90
18541;DHT22;9400;50.924;5.328;2023-02-28T10:22:38;4.10;99.90
18541;DHT22;9400;50.924;5.328;2023-02-28T10:25:17;4.00;99.90
18541;DHT22;9400;50.924;5.328;2023-02-28T10:27:45;4.10;99.90
18541;DHT22;9400;50.924;5.328;2023-02-28T10:30:13;4.00;99.90
18541;DHT22;9400;50.924;5.328;2023-02-28T10:32:45;4.10;99.90
18541;DHT22;9400;50.924;5.328;2023-02-28T10:35:20;4.30;99.90
18541;DHT22;9400;50.924;5.328;2023-02-28T10:37:53;4.30;99.90
18541;DHT22;9400;50.924;5.328;2023-02-28T10:40:33;4.20;99.90
18541;DHT22;9400;50.924;5.328;2023-02-28T10:43:02;4.10;99.90
18541;DHT22;9400;50.924;5.328;2023-02-28T10:45:31;3.90;99.90
18541;DHT22;9400;50.924;5.328;2023-02-28T10:48:02;3.80;99.90
18541;DHT22;9400;50.924;5.328;2023-02-28T10:50:42;3.80;99.90
18541;DHT22;9400;50.924;5.328;2023-02-28T10:53:29;3.80;99.90
18541;DHT22;9400;50.924;5.328;2023-02-28T10:56:02;3.90;99.90
18541;DHT22;9400;50.924;5.328;2023-02-28T10:58:40;4.10;99.90
18541;DHT22;9400;50.924;5.328;2023-02-28T11:01:14;4.20;99.90
18541;DHT22;9400;50.924;5.328;2023-02-28T11:03:42;4.20;99.90
18541;DHT22;9400;50.924;5.328;2023-02-28T11:06:17;4.30;99.90
18541;DHT22;9400;50.924;5.328;2023-02-28T11:08:48;4.80;99.90
18541;DHT22;9400;50.924;5.328;2023-02-28T11:11:17;5.00;99.90
18541;DHT22;9400;50.924;5.328;2023-02-28T11:13:46;5.40;99.90
18541;DHT22;9400;50.924;5.328;2023-02-28T11:16:16;5.50;99.90
18541;DHT22;9400;50.924;5.328;2023-02-28T11:18:48;5.50;99.90
18541;DHT22;9400;50.924;5.328;2023-02-28T11:21:22;5.30;99.90
18541;DHT22;9400;50.924;5.328;2023-02-28T11:23:54;5.30;99.90
18541;DHT22;9400;50.924;5.328;2023-02-28T11:26:40;5.30;99.90
18541;DHT22;9400;50.924;5.328;2023-02-28T11:29:18;5.10;99.90
18541;DHT22;9400;50.924;5.328;2023-02-28T11:32:05;5.20;99.90
18541;DHT22;9400;50.924;5.328;2023-02-28T11:34:35;5.30;99.90
18541;DHT22;9400;50.924;5.328;2023-02-28T11:37:09;5.30;99.90
18541;DHT22;9400;50.924;5.328;2023-02-28T11:39:38;5.30;99.90
18541;DHT22;9400;50.924;5.328;2023-02-28T11:42:22;5.50;99.90
18541;DHT22;9400;50.924;5.328;2023-02-28T11:45:11;5.80;99.90
18541;DHT22;9400;50.924;5.328;2023-02-28T11:47:47;6.00;99.90
18541;DHT22;9400;50.924;5.328;2023-02-28T11:53:22;6.10;99.90
18541;DHT22;9400;50.924;5.328;2023-02-28T11:55:57;6.10;99.90
18541;DHT22;9400;50.924;5.328;2023-02-28T11:58:37;6.40;99.90
18541;DHT22;9400;50.924;5.328;2023-02-28T12:01:19;6.40;99.90
18541;DHT22;9400;50.924;5.328;2023-02-28T12:03:58;6.70;99.90
18541;DHT22;9400;50.924;5.328;2023-02-28T12:06:33;7.10;99.90
18541;DHT22;9400;50.924;5.328;2023-02-28T12:09:13;7.00;99.90
18541;DHT22;9400;50.924;5.328;2023-02-28T12:11:51;7.30;99.90
18541;DHT22;9400;50.924;5.328;2023-02-28T12:17:25;7.70;99.90
18541;DHT22;9400;50.924;5.328;2023-02-28T12:20:05;8.00;99.90
18541;DHT22;9400;50.924;5.328;2023-02-28T12:22:41;7.70;99.90
18541;DHT22;9400;50.924;5.328;2023-02-28T12:25:50;7.80;99.90
18541;DHT22;9400;50.924;5.328;2023-02-28T12:28:26;7.90;99.90
18541;DHT22;9400;50.924;5.328;2023-02-28T12:30:58;7.60;99.90
18541;DHT22;9400;50.924;5.328;2023-02-28T12:33:35;7.50;99.90
18541;DHT22;9400;50.924;5.328;2023-02-28T12:36:07;7.90;99.90
18541;DHT22;9400;50.924;5.328;2023-02-28T12:38:41;8.40;99.90
18541;DHT22;9400;50.924;5.328;2023-02-28T12:41:17;8.60;99.90
18541;DHT22;9400;50.924;5.328;2023-02-28T12:43:51;8.50;99.90
18541;DHT22;9400;50.924;5.328;2023-02-28T12:46:24;8.50;99.90
18541;DHT22;9400;50.924;5.328;2023-02-28T12:48:55;9.00;99.90
18541;DHT22;9400;50.924;5.328;2023-02-28T12:51:24;9.50;99.90
18541;DHT22;9400;50.924;5.328;2023-02-28T12:54:04;9.40;99.90
18541;DHT22;9400;50.924;5.328;2023-02-28T12:56:44;9.30;99.70
18541;DHT22;9400;50.924;5.328;2023-02-28T12:59:22;9.10;99.60
18541;DHT22;9400;50.924;5.328;2023-02-28T13:08:32;10.50;98.30
18541;DHT22;9400;50.924;5.328;2023-02-28T13:11:03;10.80;97.30
18541;DHT22;9400;50.924;5.328;2023-02-28T13:13:33;11.10;96.70
18541;DHT22;9400;50.924;5.328;2023-02-28T13:16:04;10.50;96.30
18541;DHT22;9400;50.924;5.328;2023-02-28T13:18:35;11.10;96.60
18541;DHT22;9400;50.924;5.328;2023-02-28T13:21:07;11.60;98.10
18541;DHT22;9400;50.924;5.328;2023-02-28T13:24:00;12.30;99.90
18541;DHT22;9400;50.924;5.328;2023-02-28T13:29:37;12.60;96.60
18541;DHT22;9400;50.924;5.328;2023-02-28T13:38:34;12.30;95.10
18541;DHT22;9400;50.924;5.328;2023-02-28T13:41:44;13.30;94.70
18541;DHT22;9400;50.924;5.328;2023-02-28T13:44:13;13.20;93.90
18541;DHT22;9400;50.924;5.328;2023-02-28T13:50:23;13.50;93.20
18541;DHT22;9400;50.924;5.328;2023-02-28T13:55:54;13.70;91.80
18541;DHT22;9400;50.924;5.328;2023-02-28T13:58:36;14.80;92.40
18541;DHT22;9400;50.924;5.328;2023-02-28T14:01:38;14.70;90.90
18541;DHT22;9400;50.924;5.328;2023-02-28T14:04:49;13.50;92.30
18541;DHT22;9400;50.924;5.328;2023-02-28T14:07:24;12.70;92.20
18541;DHT22;9400;50.924;5.328;2023-02-28T14:10:00;13.70;91.90
18541;DHT22;9400;50.924;5.328;2023-02-28T14:12:53;13.70;91.40
18541;DHT22;9400;50.924;5.328;2023-02-28T14:15:41;14.20;92.40
18541;DHT22;9400;50.924;5.328;2023-02-28T14:18:22;12.50;91.40
18541;DHT22;9400;50.924;5.328;2023-02-28T14:20:55;14.60;91.90
18541;DHT22;9400;50.924;5.328;2023-02-28T14:26:35;15.50;91.20
18541;DHT22;9400;50.924;5.328;2023-02-28T14:29:19;16.90;90.70
18541;DHT22;9400;50.924;5.328;2023-02-28T14:31:57;16.40;90.50
18541;DHT22;9400;50.924;5.328;2023-02-28T14:34:39;16.70;90.00
18541;DHT22;9400;50.924;5.328;2023-02-28T14:37:15;17.80;91.00
18541;DHT22;9400;50.924;5.328;2023-02-28T14:39:46;18.10;87.60
18541;DHT22;9400;50.924;5.328;2023-02-28T14:42:33;16.40;88.30
18541;DHT22;9400;50.924;5.328;2023-02-28T14:45:02;15.30;83.60
18541;DHT22;9400;50.924;5.328;2023-02-28T14:47:32;15.60;90.50
18541;DHT22;9400;50.924;5.328;2023-02-28T14:50:05;17.40;86.40
18541;DHT22;9400;50.924;5.328;2023-02-28T14:52:35;15.70;86.40
18541;DHT22;9400;50.924;5.328;2023-02-28T14:55:09;15.40;88.30
18541;DHT22;9400;50.924;5.328;2023-02-28T14:57:41;16.50;87.70
18541;DHT22;9400;50.924;5.328;2023-02-28T15:00:16;16.20;86.20
18541;DHT22;9400;50.924;5.328;2023-02-28T15:02:44;17.00;87.40
18541;DHT22;9400;50.924;5.328;2023-02-28T15:05:26;17.40;86.20
18541;DHT22;9400;50.924;5.328;2023-02-28T15:08:09;17.00;88.20
18541;DHT22;9400;50.924;5.328;2023-02-28T15:10:40;17.40;83.90
18541;DHT22;9400;50.924;5.328;2023-02-28T15:13:12;17.30;81.90
18541;DHT22;9400;50.924;5.328;2023-02-28T15:15:45;16.80;82.10
18541;DHT22;9400;50.924;5.328;2023-02-28T15:18:22;16.50;82.50
18541;DHT22;9400;50.924;5.328;2023-02-28T15:20:51;16.60;82.70
18541;DHT22;9400;50.924;5.328;2023-02-28T15:23:20;17.00;82.10
18541;DHT22;9400;50.924;5.328;2023-02-28T15:25:51;16.20;82.30
18541;DHT22;9400;50.924;5.328;2023-02-28T15:28:21;17.00;81.90
18541;DHT22;9400;50.924;5.328;2023-02-28T15:30:55;15.80;79.90
18541;DHT22;9400;50.924;5.328;2023-02-28T15:33:25;14.60;80.50
18541;DHT22;9400;50.924;5.328;2023-02-28T15:36:10;11.60;81.30
18541;DHT22;9400;50.924;5.328;2023-02-28T15:38:43;9.70;85.50
18541;DHT22;9400;50.924;5.328;2023-02-28T15:41:26;9.50;86.80
18541;DHT22;9400;50.924;5.328;2023-02-28T15:44:16;8.90;86.80
18541;DHT22;9400;50.924;5.328;2023-02-28T15:46:54;8.60;91.40
18541;DHT22;9400;50.924;5.328;2023-02-28T15:49:22;8.10;89.80
18541;DHT22;9400;50.924;5.328;2023-02-28T15:51:51;8.30;90.90
18541;DHT22;9400;50.924;5.328;2023-02-28T15:54:22;8.40;91.10
18541;DHT22;9400;50.924;5.328;2023-02-28T15:56:56;8.20;90.00
18541;DHT22;9400;50.924;5.328;2023-02-28T15:59:26;8.10;90.60
18541;DHT22;9400;50.924;5.328;2023-02-28T16:02:14;8.30;90.90
18541;DHT22;9400;50.924;5.328;2023-02-28T16:04:58;8.60;91.30
18541;DHT22;9400;50.924;5.328;2023-02-28T16:07:27;9.30;91.50
18541;DHT22;9400;50.924;5.328;2023-02-28T16:09:55;10.60;89.90
18541;DHT22;9400;50.924;5.328;2023-02-28T16:12:29;11.60;89.80
18541;DHT22;9400;50.924;5.328;2023-02-28T16:14:58;11.60;90.00
18541;DHT22;9400;50.924;5.328;2023-02-28T16:17:31;11.40;89.90
18541;DHT22;9400;50.924;5.328;2023-02-28T16:20:13;10.60;88.60
18541;DHT22;9400;50.924;5.328;2023-02-28T16:22:41;10.00;89.20
18541;DHT22;9400;50.924;5.328;2023-02-28T16:25:12;10.10;90.20
18541;DHT22;9400;50.924;5.328;2023-02-28T16:27:42;10.50;89.10
18541;DHT22;9400;50.924;5.328;2023-02-28T16:30:19;11.50;89.10
18541;DHT22;9400;50.924;5.328;2023-02-28T16:32:47;11.60;88.50
18541;DHT22;9400;50.924;5.328;2023-02-28T16:35:16;11.50;87.30
18541;DHT22;9400;50.924;5.328;2023-02-28T16:37:44;10.90;87.70
18541;DHT22;9400;50.924;5.328;2023-02-28T16:40:14;10.30;87.30
18541;DHT22;9400;50.924;5.328;2023-02-28T16:42:45;9.10;91.40
18541;DHT22;9400;50.924;5.328;2023-02-28T16:45:21;8.40;90.90
18541;DHT22;9400;50.924;5.328;2023-02-28T16:47:50;7.90;91.30
18541;DHT22;9400;50.924;5.328;2023-02-28T16:50:19;7.50;91.80
18541;DHT22;9400;50.924;5.328;2023-02-28T16:52:47;7.50;92.20
18541;DHT22;9400;50.924;5.328;2023-02-28T16:55:15;7.60;91.70
18541;DHT22;9400;50.924;5.328;2023-02-28T16:57:52;7.30;91.50
18541;DHT22;9400;50.924;5.328;2023-02-28T17:00:21;7.30;91.50
18541;DHT22;9400;50.924;5.328;2023-02-28T17:02:49;7.10;91.60
18541;DHT22;9400;50.924;5.328;2023-02-28T17:05:17;7.00;91.90
18541;DHT22;9400;50.924;5.328;2023-02-28T17:07:45;7.10;92.30
18541;DHT22;9400;50.924;5.328;2023-02-28T17:10:16;6.90;92.80
18541;DHT22;9400;50.924;5.328;2023-02-28T17:12:48;6.90;92.70